Time;durP1;ratioP1;P1;durP2;ratioP2;P2;SDS_P1;SDS_P2;PMS_P1;PMS_P2;Temp;Humidity;BMP_temperature;BMP_pressure;BME280_temperature;BME280_humidity;BME280_pressure;Samples;Min_cycle;Max_cycle;Signal;HPM_P1;HPM_P2
2023/01/22 00:01:35;;;;;;;18.07;9.03;;;;;;;;;;5092632;28;20450;-74
2023/01/22 00:04:02;;;;;;;18.13;9.93;;;;;;;;;;5092413;28;20454;-74
2023/01/22 00:06:30;;;;;;;17.33;10.33;;;;;;;;;;5092775;28;20451;-74
2023/01/22 00:09:02;;;;;;;20.60;8.70;;;;;;;;;;5092226;28;20466;-74
2023/01/22 00:11:30;;;;;;;18.90;8.90;;;;;;;;;;5092460;28;20454;-74
2023/01/22 00:13:58;;;;;;;16.70;8.93;;;;;;;;;;5092484;28;20449;-74
2023/01/22 00:16:25;;;;;;;20.73;9.43;;;;;;;;;;5092365;28;20446;-74
2023/01/22 00:18:52;;;;;;;14.70;8.70;;;;;;;;;;5092258;28;20473;-74
2023/01/22 00:21:19;;;;;;;14.53;9.13;;;;;;;;;;5092769;28;20447;-74
2023/01/22 00:23:46;;;;;;;15.17;8.87;;;;;;;;;;5091954;28;20461;-74
2023/01/22 00:26:16;;;;;;;20.07;10.17;;;;;;;;;;5092275;28;20486;-74
2023/01/22 00:28:45;;;;;;;23.87;10.57;;;;;;;;;;5091660;28;20473;-74
2023/01/22 00:31:12;;;;;;;23.80;11.30;;;;;;;;;;5092031;28;20453;-74
2023/01/22 00:33:40;;;;;;;18.03;10.30;;;;;;;;;;5094047;28;20955;-74
2023/01/22 00:36:07;;;;;;;22.27;11.40;;;;;;;;;;5096146;28;20453;-74
2023/01/22 00:38:35;;;;;;;19.10;9.60;;;;;;;;;;5095969;28;20471;-74
2023/01/22 00:41:02;;;;;;;20.50;11.30;;;;;;;;;;5096104;28;21046;-74
2023/01/22 00:43:29;;;;;;;18.80;10.53;;;;;;;;;;5095931;28;20453;-74
2023/01/22 00:45:58;;;;;;;18.50;10.77;;;;;;;;;;5095960;28;20556;-73
2023/01/22 00:48:25;;;;;;;17.83;11.17;;;;;;;;;;5096137;28;20831;-74
2023/01/22 00:50:52;;;;;;;24.90;13.63;;;;;;;;;;5095978;28;20802;-74
2023/01/22 00:53:19;;;;;;;21.67;12.00;;;;;;;;;;5095980;28;20447;-74
2023/01/22 00:55:52;;;;;;;24.90;12.00;;;;;;;;;;5095765;28;20457;-74
2023/01/22 00:58:20;;;;;;;23.43;10.83;;;;;;;;;;5095416;28;20482;-74
2023/01/22 01:00:47;;;;;;;21.93;11.60;;;;;;;;;;5095890;28;20805;-74
2023/01/22 01:03:29;;;;;;;22.97;11.97;;;;;;;;;;5095221;28;20450;-74
2023/01/22 01:05:56;;;;;;;21.53;10.33;;;;;;;;;;5095562;28;20490;-74
2023/01/22 01:08:24;;;;;;;17.43;9.97;;;;;;;;;;5095783;28;20545;-74
2023/01/22 01:10:53;;;;;;;20.70;11.77;;;;;;;;;;5095546;28;20457;-74
2023/01/22 01:13:20;;;;;;;24.70;12.00;;;;;;;;;;5095505;28;20447;-74
2023/01/22 01:15:48;;;;;;;16.93;10.73;;;;;;;;;;5094919;28;20477;-74
2023/01/22 01:18:16;;;;;;;23.47;10.87;;;;;;;;;;5095567;28;20833;-74
2023/01/22 01:20:43;;;;;;;24.93;10.87;;;;;;;;;;5095453;28;20450;-74
2023/01/22 01:23:10;;;;;;;26.77;12.10;;;;;;;;;;5094957;28;20454;-74
2023/01/22 01:25:40;;;;;;;20.60;10.70;;;;;;;;;;5094886;28;20493;-74
2023/01/22 01:28:08;;;;;;;27.50;12.13;;;;;;;;;;5095115;28;20446;-74
2023/01/22 01:30:35;;;;;;;19.13;11.40;;;;;;;;;;5094914;28;20451;-74
2023/01/22 01:33:02;;;;;;;27.00;11.60;;;;;;;;;;5094745;28;20952;-74
2023/01/22 01:35:30;;;;;;;24.97;13.27;;;;;;;;;;5094564;28;20958;-74
2023/01/22 01:37:57;;;;;;;21.43;11.73;;;;;;;;;;5094685;28;20450;-74
2023/01/22 01:40:25;;;;;;;22.23;12.23;;;;;;;;;;5095015;28;20458;-74
2023/01/22 01:42:52;;;;;;;26.17;14.37;;;;;;;;;;5094920;28;20455;-74
2023/01/22 01:45:20;;;;;;;33.07;14.87;;;;;;;;;;5094214;28;20498;-74
2023/01/22 01:47:49;;;;;;;31.33;14.07;;;;;;;;;;5094842;28;20831;-75
2023/01/22 01:50:17;;;;;;;26.00;13.83;;;;;;;;;;5094853;28;20474;-74
2023/01/22 01:52:45;;;;;;;26.33;13.47;;;;;;;;;;5094873;28;20451;-74
2023/01/22 01:55:13;;;;;;;32.10;15.97;;;;;;;;;;5094123;28;20450;-74
2023/01/22 01:57:41;;;;;;;32.60;15.70;;;;;;;;;;5094740;28;20455;-74
2023/01/22 02:00:10;;;;;;;25.83;13.40;;;;;;;;;;5094588;28;20475;-74
2023/01/22 02:02:37;;;;;;;27.50;15.23;;;;;;;;;;5094614;28;20450;-74
2023/01/22 02:05:05;;;;;;;28.97;14.40;;;;;;;;;;5094268;28;20479;-74
2023/01/22 02:07:32;;;;;;;30.93;15.70;;;;;;;;;;5094293;28;20465;-74
2023/01/22 02:10:03;;;;;;;25.73;12.90;;;;;;;;;;5094352;28;20473;-74
2023/01/22 02:12:31;;;;;;;23.13;12.43;;;;;;;;;;5093989;28;20496;-74
2023/01/22 02:14:58;;;;;;;20.40;11.47;;;;;;;;;;5094474;28;20803;-74
2023/01/22 02:17:25;;;;;;;27.27;13.27;;;;;;;;;;5094278;28;20819;-74
2023/01/22 02:19:52;;;;;;;21.37;11.97;;;;;;;;;;5094138;28;20481;-74
2023/01/22 02:22:22;;;;;;;23.20;11.10;;;;;;;;;;5094346;28;20451;-74
2023/01/22 02:24:49;;;;;;;20.90;12.30;;;;;;;;;;5093846;28;20455;-74
2023/01/22 02:27:16;;;;;;;21.60;11.13;;;;;;;;;;5094062;28;20443;-74
2023/01/22 02:29:43;;;;;;;26.90;12.83;;;;;;;;;;5094125;28;20475;-74
2023/01/22 02:32:10;;;;;;;27.00;14.03;;;;;;;;;;5093837;28;20447;-74
2023/01/22 02:34:38;;;;;;;23.17;11.80;;;;;;;;;;5093198;28;20978;-74
2023/01/22 02:37:05;;;;;;;20.60;11.70;;;;;;;;;;5093947;28;20442;-74
2023/01/22 02:39:33;;;;;;;25.33;12.97;;;;;;;;;;5093809;28;20481;-74
2023/01/22 02:42:01;;;;;;;24.97;13.40;;;;;;;;;;5093833;28;20443;-74
2023/01/22 02:44:28;;;;;;;26.00;14.40;;;;;;;;;;5093274;28;20935;-74
2023/01/22 02:46:55;;;;;;;26.13;14.00;;;;;;;;;;5093608;28;20497;-74
2023/01/22 02:49:22;;;;;;;23.17;11.00;;;;;;;;;;5093083;28;20471;-74
2023/01/22 02:51:49;;;;;;;27.73;13.40;;;;;;;;;;5093635;28;20450;-74
2023/01/22 02:54:17;;;;;;;22.77;12.07;;;;;;;;;;5093616;28;20450;-74
2023/01/22 02:56:45;;;;;;;26.00;12.10;;;;;;;;;;5092844;28;20446;-74
2023/01/22 02:59:12;;;;;;;23.00;12.30;;;;;;;;;;5093552;28;20489;-74
2023/01/22 03:01:39;;;;;;;21.50;12.33;;;;;;;;;;5093523;28;20462;-74
2023/01/22 03:04:09;;;;;;;23.10;12.30;;;;;;;;;;5093239;28;20454;-74
2023/01/22 03:06:37;;;;;;;22.90;12.10;;;;;;;;;;5093568;28;20486;-74
2023/01/22 03:09:04;;;;;;;26.47;13.30;;;;;;;;;;5093188;28;20474;-74
2023/01/22 03:11:32;;;;;;;20.63;11.47;;;;;;;;;;5093431;28;20455;-74
2023/01/22 03:22:15;;;;;;;26.60;12.87;;;;;;;;;;5093401;28;20422;-73
2023/01/22 03:24:42;;;;;;;23.23;12.80;;;;;;;;;;5092910;28;20541;-73
2023/01/22 03:27:09;;;;;;;29.53;12.33;;;;;;;;;;5092988;28;20859;-74
2023/01/22 03:29:38;;;;;;;25.00;13.27;;;;;;;;;;5092645;28;20466;-73
2023/01/22 03:32:05;;;;;;;26.37;13.30;;;;;;;;;;5092341;28;20693;-74
2023/01/22 03:34:32;;;;;;;26.30;13.20;;;;;;;;;;5092845;28;20467;-73
2023/01/22 03:36:59;;;;;;;30.10;14.87;;;;;;;;;;5092715;28;20454;-73
2023/01/22 03:39:27;;;;;;;29.20;12.33;;;;;;;;;;5092810;28;20474;-74
2023/01/22 03:41:54;;;;;;;33.27;13.90;;;;;;;;;;5092894;28;20824;-73
2023/01/22 03:44:21;;;;;;;25.10;13.07;;;;;;;;;;5092950;28;20461;-74
2023/01/22 03:46:50;;;;;;;25.40;11.97;;;;;;;;;;5092758;28;20520;-73
2023/01/22 03:49:17;;;;;;;27.67;13.40;;;;;;;;;;5093043;28;20471;-73
2023/01/22 03:51:44;;;;;;;24.73;14.40;;;;;;;;;;5092788;28;20462;-73
2023/01/22 03:54:12;;;;;;;24.60;11.67;;;;;;;;;;5092603;28;20465;-73
2023/01/22 03:56:39;;;;;;;20.83;11.90;;;;;;;;;;5092817;28;20475;-73
2023/01/22 03:59:06;;;;;;;22.77;11.03;;;;;;;;;;5092606;28;20471;-74
2023/01/22 04:01:33;;;;;;;24.63;14.10;;;;;;;;;;5092859;28;20454;-73
2023/01/22 04:04:01;;;;;;;24.30;14.30;;;;;;;;;;5092696;28;20462;-73
2023/01/22 04:06:30;;;;;;;21.47;12.20;;;;;;;;;;5092644;28;20490;-74
2023/01/22 04:08:57;;;;;;;23.47;12.33;;;;;;;;;;5096728;28;20466;-74
2023/01/22 04:11:24;;;;;;;24.77;12.40;;;;;;;;;;5096972;28;20450;-73
2023/01/22 04:13:51;;;;;;;29.00;13.27;;;;;;;;;;5096496;28;20466;-73
2023/01/22 04:16:18;;;;;;;26.00;14.37;;;;;;;;;;5096459;28;20458;-73
2023/01/22 04:18:45;;;;;;;24.67;11.80;;;;;;;;;;5096398;28;20474;-74
2023/01/22 04:21:14;;;;;;;21.60;11.53;;;;;;;;;;5096674;28;20931;-73
2023/01/22 04:23:41;;;;;;;27.43;14.13;;;;;;;;;;5096668;28;20485;-73
2023/01/22 04:26:08;;;;;;;27.70;13.73;;;;;;;;;;5096420;28;20486;-73
2023/01/22 04:28:35;;;;;;;22.63;12.97;;;;;;;;;;5096511;28;20477;-73
2023/01/22 04:31:03;;;;;;;21.73;12.97;;;;;;;;;;5096057;28;20931;-73
2023/01/22 04:33:30;;;;;;;24.47;12.00;;;;;;;;;;5096121;28;20529;-73
2023/01/22 04:35:57;;;;;;;27.13;13.20;;;;;;;;;;5096034;28;20466;-73
2023/01/22 04:38:26;;;;;;;32.10;15.37;;;;;;;;;;5096185;28;20478;-73
2023/01/22 04:40:53;;;;;;;24.83;13.87;;;;;;;;;;5096038;28;20454;-74
2023/01/22 04:43:20;;;;;;;25.30;11.70;;;;;;;;;;5096289;28;20447;-74
2023/01/22 04:45:47;;;;;;;29.10;14.57;;;;;;;;;;5095909;28;20943;-74
2023/01/22 04:48:14;;;;;;;23.90;13.17;;;;;;;;;;5096107;28;20450;-74
2023/01/22 04:50:41;;;;;;;25.73;12.77;;;;;;;;;;5096046;28;20454;-74
2023/01/22 04:53:08;;;;;;;29.13;13.17;;;;;;;;;;5096024;28;20450;-74
2023/01/22 04:55:37;;;;;;;29.27;15.07;;;;;;;;;;5095737;28;20447;-74
2023/01/22 04:58:04;;;;;;;24.03;13.10;;;;;;;;;;5095895;28;20454;-74
2023/01/22 05:00:31;;;;;;;31.00;13.20;;;;;;;;;;5095807;28;20454;-74
2023/01/22 05:02:59;;;;;;;31.80;14.90;;;;;;;;;;5095721;28;20458;-74
2023/01/22 05:05:26;;;;;;;32.20;16.07;;;;;;;;;;5095691;28;20450;-73
2023/01/22 05:07:54;;;;;;;25.53;13.77;;;;;;;;;;5095689;28;20893;-73
2023/01/22 05:10:21;;;;;;;33.10;14.27;;;;;;;;;;5095100;28;20474;-73
2023/01/22 05:12:49;;;;;;;25.37;13.17;;;;;;;;;;5095798;28;20834;-73
2023/01/22 05:15:17;;;;;;;26.57;12.57;;;;;;;;;;5095194;28;20496;-74
2023/01/22 05:17:45;;;;;;;35.67;14.70;;;;;;;;;;5095551;28;20951;-73
2023/01/22 05:20:12;;;;;;;26.67;13.50;;;;;;;;;;5094349;28;20968;-74
2023/01/22 05:22:39;;;;;;;25.07;11.73;;;;;;;;;;5095255;28;20458;-74
2023/01/22 05:25:07;;;;;;;17.60;11.97;;;;;;;;;;5095250;28;20459;-74
2023/01/22 05:27:34;;;;;;;25.13;13.73;;;;;;;;;;5095347;28;20490;-74
2023/01/22 05:30:06;;;;;;;27.27;13.20;;;;;;;;;;5095122;28;20481;-73
2023/01/22 05:32:33;;;;;;;25.73;13.10;;;;;;;;;;5095431;28;20451;-73
2023/01/22 05:35:00;;;;;;;29.17;13.70;;;;;;;;;;5094457;28;20461;-73
2023/01/22 05:37:27;;;;;;;32.97;16.00;;;;;;;;;;5095116;28;20471;-73
2023/01/22 05:39:55;;;;;;;27.83;15.17;;;;;;;;;;5094484;28;20463;-73
2023/01/22 05:42:22;;;;;;;26.30;13.07;;;;;;;;;;5094817;28;20455;-73
2023/01/22 05:44:49;;;;;;;28.30;15.30;;;;;;;;;;5094921;28;20822;-73
2023/01/22 05:47:17;;;;;;;28.37;15.20;;;;;;;;;;5095175;28;20482;-73
2023/01/22 05:49:44;;;;;;;29.00;13.53;;;;;;;;;;5094705;28;20478;-73
2023/01/22 05:52:12;;;;;;;29.60;13.80;;;;;;;;;;5094921;28;20446;-73
2023/01/22 05:54:39;;;;;;;27.20;13.17;;;;;;;;;;5094729;28;20454;-74
2023/01/22 05:57:06;;;;;;;22.50;12.23;;;;;;;;;;5094922;28;20974;-73
2023/01/22 05:59:33;;;;;;;24.13;11.97;;;;;;;;;;5094779;28;20505;-73
2023/01/22 06:02:00;;;;;;;23.37;12.53;;;;;;;;;;5094813;28;20461;-73
2023/01/22 06:04:29;;;;;;;27.20;13.93;;;;;;;;;;5094735;28;20526;-73
2023/01/22 06:06:56;;;;;;;32.67;14.60;;;;;;;;;;5094582;28;20485;-73
2023/01/22 06:09:23;;;;;;;34.43;15.30;;;;;;;;;;5094512;28;20463;-73
2023/01/22 06:11:50;;;;;;;24.60;13.40;;;;;;;;;;5094525;28;20469;-73
2023/01/22 06:14:17;;;;;;;31.07;13.20;;;;;;;;;;5094456;28;20948;-73
2023/01/22 06:16:44;;;;;;;25.83;13.70;;;;;;;;;;5094325;28;20859;-73
2023/01/22 06:19:12;;;;;;;30.47;14.43;;;;;;;;;;5093954;28;20490;-73
2023/01/22 06:21:42;;;;;;;28.10;14.53;;;;;;;;;;5094507;28;20500;-73
2023/01/22 06:24:09;;;;;;;26.50;13.50;;;;;;;;;;5094308;28;20489;-73
2023/01/22 06:26:36;;;;;;;28.40;13.77;;;;;;;;;;5094294;28;20482;-73
2023/01/22 06:29:04;;;;;;;19.43;11.70;;;;;;;;;;5094236;28;20470;-73
2023/01/22 06:31:31;;;;;;;24.60;11.03;;;;;;;;;;5093897;28;20974;-73
2023/01/22 06:33:58;;;;;;;30.70;14.33;;;;;;;;;;5094024;28;20831;-73
2023/01/22 06:36:25;;;;;;;23.40;11.83;;;;;;;;;;5094271;28;20481;-73
2023/01/22 06:38:54;;;;;;;29.40;13.20;;;;;;;;;;5093643;28;20481;-73
2023/01/22 06:41:21;;;;;;;21.80;12.30;;;;;;;;;;5094250;28;20461;-73
2023/01/22 06:43:48;;;;;;;25.47;13.30;;;;;;;;;;5093985;28;20457;-73
2023/01/22 06:46:15;;;;;;;22.27;12.80;;;;;;;;;;5093898;28;20451;-73
2023/01/22 06:48:43;;;;;;;27.57;13.83;;;;;;;;;;5093836;28;20477;-74
2023/01/22 06:51:10;;;;;;;29.80;13.60;;;;;;;;;;5093897;28;20524;-73
2023/01/22 06:53:37;;;;;;;27.93;13.53;;;;;;;;;;5093416;28;20461;-73
2023/01/22 06:56:06;;;;;;;29.70;15.70;;;;;;;;;;5093807;28;20451;-73
2023/01/22 06:58:33;;;;;;;40.50;18.60;;;;;;;;;;5093794;28;20474;-73
2023/01/22 07:01:01;;;;;;;29.50;15.77;;;;;;;;;;5093792;28;20466;-73
2023/01/22 07:03:28;;;;;;;28.63;13.20;;;;;;;;;;5093570;28;20462;-73
2023/01/22 07:05:57;;;;;;;29.83;13.93;;;;;;;;;;5093651;28;20450;-73
2023/01/22 07:08:24;;;;;;;20.27;12.23;;;;;;;;;;5093512;28;20486;-72
2023/01/22 07:10:51;;;;;;;28.93;15.00;;;;;;;;;;5093746;28;20454;-73
2023/01/22 07:13:20;;;;;;;31.90;15.63;;;;;;;;;;5093664;28;20455;-73
2023/01/22 07:15:47;;;;;;;27.93;16.00;;;;;;;;;;5093448;28;20454;-73
2023/01/22 07:18:15;;;;;;;37.23;19.23;;;;;;;;;;5093477;28;20447;-73
2023/01/22 07:20:43;;;;;;;43.40;19.17;;;;;;;;;;5093007;28;20451;-73
2023/01/22 07:23:10;;;;;;;33.90;15.17;;;;;;;;;;5088506;28;20462;-73
2023/01/22 07:25:37;;;;;;;31.97;15.10;;;;;;;;;;5092948;28;20438;-73
2023/01/22 07:28:05;;;;;;;28.77;14.33;;;;;;;;;;5092152;28;20482;-73
2023/01/22 07:30:33;;;;;;;29.97;15.57;;;;;;;;;;5092407;28;20958;-73
2023/01/22 07:33:01;;;;;;;28.90;15.17;;;;;;;;;;5092847;28;20466;-73
2023/01/22 07:35:28;;;;;;;45.47;22.30;;;;;;;;;;5092977;28;20442;-73
2023/01/22 07:37:56;;;;;;;30.27;16.40;;;;;;;;;;5092868;28;20458;-73
2023/01/22 07:40:23;;;;;;;34.63;16.67;;;;;;;;;;5093044;28;20932;-73
2023/01/22 07:42:51;;;;;;;27.83;14.87;;;;;;;;;;5092531;28;20478;-73
2023/01/22 07:45:18;;;;;;;43.10;21.70;;;;;;;;;;5092831;28;21033;-73
2023/01/22 07:47:53;;;;;;;35.83;19.07;;;;;;;;;;5091552;28;20499;-72
2023/01/22 07:50:20;;;;;;;46.17;23.33;;;;;;;;;;5092945;28;20470;-73
2023/01/22 07:52:47;;;;;;;41.20;19.33;;;;;;;;;;5092485;28;20620;-73
2023/01/22 07:55:14;;;;;;;31.80;17.23;;;;;;;;;;5092283;28;20460;-73
2023/01/22 07:57:42;;;;;;;29.00;16.40;;;;;;;;;;5092794;28;20817;-72
2023/01/22 08:00:09;;;;;;;38.93;17.60;;;;;;;;;;5092808;28;20471;-73
2023/01/22 08:02:36;;;;;;;32.40;17.07;;;;;;;;;;5092931;28;20446;-72
2023/01/22 08:05:05;;;;;;;34.27;20.40;;;;;;;;;;5092569;28;20458;-72
2023/01/22 08:07:33;;;;;;;42.80;18.40;;;;;;;;;;5092876;28;20486;-72
2023/01/22 08:10:00;;;;;;;31.30;18.33;;;;;;;;;;5092698;28;20487;-72
2023/01/22 08:12:27;;;;;;;32.47;16.57;;;;;;;;;;5092785;28;20447;-73
2023/01/22 08:14:54;;;;;;;33.60;17.53;;;;;;;;;;5092710;28;20457;-72
2023/01/22 08:17:21;;;;;;;28.17;15.43;;;;;;;;;;5092636;28;20452;-72
2023/01/22 08:19:48;;;;;;;30.57;16.73;;;;;;;;;;5092770;28;20458;-72
2023/01/22 08:22:20;;;;;;;23.70;14.00;;;;;;;;;;5092881;28;20466;-72
2023/01/22 08:24:47;;;;;;;27.70;14.90;;;;;;;;;;5092302;28;20453;-73
2023/01/22 08:27:14;;;;;;;21.60;14.27;;;;;;;;;;5092559;28;20494;-73
2023/01/22 08:29:41;;;;;;;23.50;13.73;;;;;;;;;;5092508;28;20478;-72
2023/01/22 08:32:08;;;;;;;26.27;15.33;;;;;;;;;;5091705;28;20454;-73
2023/01/22 08:34:35;;;;;;;27.77;14.80;;;;;;;;;;5092590;28;20473;-73
2023/01/22 08:37:02;;;;;;;27.20;14.70;;;;;;;;;;5092601;28;20451;-72
2023/01/22 08:39:31;;;;;;;27.90;14.53;;;;;;;;;;5092520;28;20471;-72
2023/01/22 08:41:58;;;;;;;25.30;14.27;;;;;;;;;;5092520;28;20450;-72
2023/01/22 08:44:25;;;;;;;25.90;14.80;;;;;;;;;;5092446;28;20951;-73
2023/01/22 08:46:52;;;;;;;23.73;14.27;;;;;;;;;;5092165;28;20455;-73
2023/01/22 08:49:20;;;;;;;26.17;14.53;;;;;;;;;;5092469;28;20474;-72
2023/01/22 08:51:49;;;;;;;28.40;15.80;;;;;;;;;;5092410;28;20485;-73
2023/01/22 08:54:16;;;;;;;31.77;15.63;;;;;;;;;;5092584;28;20520;-73
2023/01/22 08:56:46;;;;;;;25.43;15.00;;;;;;;;;;5095919;28;20459;-74
2023/01/22 08:59:13;;;;;;;28.90;15.93;;;;;;;;;;5095925;28;20474;-73
2023/01/22 09:01:41;;;;;;;25.00;15.47;;;;;;;;;;5095981;28;20454;-74
2023/01/22 09:04:09;;;;;;;32.97;16.70;;;;;;;;;;5095745;28;20451;-73
2023/01/22 09:06:36;;;;;;;26.40;15.83;;;;;;;;;;5096784;28;20450;-71
2023/01/22 09:09:04;;;;;;;25.50;14.47;;;;;;;;;;5095911;28;20490;-71
2023/01/22 09:11:32;;;;;;;29.47;14.20;;;;;;;;;;5096282;28;20812;-71
2023/01/22 09:14:01;;;;;;;31.83;17.30;;;;;;;;;;5096185;28;20469;-71
2023/01/22 09:16:28;;;;;;;26.13;16.43;;;;;;;;;;5096770;28;20447;-71
2023/01/22 09:18:55;;;;;;;36.73;17.70;;;;;;;;;;5096195;28;20467;-71
2023/01/22 09:21:23;;;;;;;26.80;15.90;;;;;;;;;;5096040;28;20447;-72
2023/01/22 09:23:50;;;;;;;27.57;15.40;;;;;;;;;;5095784;28;20435;-71
2023/01/22 09:26:17;;;;;;;28.00;15.20;;;;;;;;;;5095930;28;20447;-71
2023/01/22 09:28:44;;;;;;;27.70;14.70;;;;;;;;;;5095503;28;20493;-71
2023/01/22 09:31:14;;;;;;;28.63;16.57;;;;;;;;;;5095597;28;20459;-71
2023/01/22 09:33:41;;;;;;;27.67;15.40;;;;;;;;;;5095535;28;20469;-71
2023/01/22 09:36:09;;;;;;;34.17;19.00;;;;;;;;;;5095513;28;20455;-71
2023/01/22 09:38:36;;;;;;;32.27;16.37;;;;;;;;;;5095374;28;20470;-71
2023/01/22 09:41:06;;;;;;;31.30;16.20;;;;;;;;;;5095532;28;20455;-71
2023/01/22 09:43:34;;;;;;;29.30;17.20;;;;;;;;;;5095959;28;20755;-71
2023/01/22 09:46:03;;;;;;;33.03;17.90;;;;;;;;;;5095566;28;20454;-70
2023/01/22 09:48:35;;;;;;;36.43;19.43;;;;;;;;;;5095343;28;20491;-70
2023/01/22 09:51:02;;;;;;;36.73;20.33;;;;;;;;;;5095506;28;20900;-70
2023/01/22 09:53:30;;;;;;;32.43;16.97;;;;;;;;;;5095417;28;20798;-70
2023/01/22 09:55:57;;;;;;;32.47;17.50;;;;;;;;;;5095093;28;20446;-70
2023/01/22 09:58:25;;;;;;;37.67;20.13;;;;;;;;;;5095293;28;20475;-71
2023/01/22 10:00:54;;;;;;;27.53;16.70;;;;;;;;;;5095373;28;20829;-71
2023/01/22 10:03:24;;;;;;;29.43;16.87;;;;;;;;;;5095234;28;20461;-71
2023/01/22 10:05:54;;;;;;;29.53;17.57;;;;;;;;;;5094814;28;20482;-71
2023/01/22 10:08:23;;;;;;;31.50;16.67;;;;;;;;;;5094948;28;20494;-71
2023/01/22 10:10:50;;;;;;;30.10;19.30;;;;;;;;;;5094997;28;20808;-70
2023/01/22 10:13:19;;;;;;;26.97;16.90;;;;;;;;;;5095010;28;20956;-71
2023/01/22 10:15:46;;;;;;;33.03;18.40;;;;;;;;;;5094963;28;20447;-71
2023/01/22 10:18:20;;;;;;;26.73;14.57;;;;;;;;;;5094768;28;20430;-71
2023/01/22 10:20:48;;;;;;;29.97;15.70;;;;;;;;;;5094993;28;20471;-71
2023/01/22 10:23:18;;;;;;;31.70;18.63;;;;;;;;;;5094650;28;20463;-71
2023/01/22 10:25:45;;;;;;;27.03;14.40;;;;;;;;;;5093979;28;20557;-71
2023/01/22 10:28:13;;;;;;;23.87;14.13;;;;;;;;;;5093348;28;20505;-71
2023/01/22 10:30:46;;;;;;;27.80;16.60;;;;;;;;;;5093677;28;20462;-70
2023/01/22 10:33:16;;;;;;;21.87;13.93;;;;;;;;;;5094468;28;20467;-70
2023/01/22 10:35:43;;;;;;;36.07;19.47;;;;;;;;;;5094594;28;20455;-71
2023/01/22 10:38:22;;;;;;;33.50;19.73;;;;;;;;;;5094413;28;20451;-71
2023/01/22 10:40:53;;;;;;;25.30;15.07;;;;;;;;;;5094238;28;20492;-71
2023/01/22 10:43:20;;;;;;;34.23;15.87;;;;;;;;;;5094169;28;20442;-71
2023/01/22 10:45:51;;;;;;;29.57;15.30;;;;;;;;;;5094171;28;20442;-71
2023/01/22 10:48:19;;;;;;;23.20;14.37;;;;;;;;;;5094258;28;20494;-71
2023/01/22 10:50:47;;;;;;;26.37;15.30;;;;;;;;;;5094108;28;20451;-72
2023/01/22 10:53:30;;;;;;;22.83;14.33;;;;;;;;;;5094324;28;20823;-71
2023/01/22 10:55:59;;;;;;;21.97;12.93;;;;;;;;;;5094246;28;20439;-71
2023/01/22 10:58:30;;;;;;;22.50;13.50;;;;;;;;;;5093918;28;20554;-71
2023/01/22 11:00:59;;;;;;;28.70;14.83;;;;;;;;;;5094187;28;20803;-71
2023/01/22 11:03:30;;;;;;;29.30;17.07;;;;;;;;;;5094083;28;20461;-72
2023/01/22 11:05:59;;;;;;;27.57;15.23;;;;;;;;;;5094155;28;20446;-71
2023/01/22 11:08:29;;;;;;;23.77;14.70;;;;;;;;;;5093374;28;20499;-71
2023/01/22 11:10:59;;;;;;;22.83;13.80;;;;;;;;;;5093167;28;20455;-71
2023/01/22 11:13:31;;;;;;;23.03;13.40;;;;;;;;;;5091511;28;20458;-71
2023/01/22 11:16:00;;;;;;;25.80;14.83;;;;;;;;;;5091819;28;20854;-71
2023/01/22 11:18:29;;;;;;;31.13;14.63;;;;;;;;;;5091782;28;20477;-71
2023/01/22 11:20:58;;;;;;;21.73;13.20;;;;;;;;;;5092107;28;20450;-71
2023/01/22 11:23:31;;;;;;;26.20;14.20;;;;;;;;;;5092238;28;20450;-71
2023/01/22 11:26:04;;;;;;;27.17;16.97;;;;;;;;;;5092249;28;20439;-71
2023/01/22 11:28:40;;;;;;;25.53;15.37;;;;;;;;;;5092424;28;20502;-71
2023/01/22 11:31:17;;;;;;;26.93;16.67;;;;;;;;;;5092398;28;20442;-71
2023/01/22 11:33:55;;;;;;;29.30;16.17;;;;;;;;;;5092077;28;20947;-72
2023/01/22 11:36:26;;;;;;;29.60;15.80;;;;;;;;;;5092414;28;20434;-71
2023/01/22 11:38:57;;;;;;;32.80;18.33;;;;;;;;;;5092301;28;20465;-72
2023/01/22 11:41:35;;;;;;;28.03;15.47;;;;;;;;;;5091392;28;20451;-72
2023/01/22 11:44:08;;;;;;;26.80;15.50;;;;;;;;;;5092116;28;20438;-71
2023/01/22 11:46:39;;;;;;;21.23;14.90;;;;;;;;;;5092347;28;20430;-71
2023/01/22 11:49:11;;;;;;;28.10;15.53;;;;;;;;;;5091626;28;20497;-72
2023/01/22 11:51:45;;;;;;;28.03;15.73;;;;;;;;;;5092108;28;20439;-71
2023/01/22 11:54:28;;;;;;;24.20;15.07;;;;;;;;;;5091922;28;20497;-71
2023/01/22 11:57:04;;;;;;;24.20;13.53;;;;;;;;;;5091956;28;20812;-71
2023/01/22 11:59:36;;;;;;;31.23;15.17;;;;;;;;;;5091758;28;20478;-71
2023/01/22 12:02:16;;;;;;;28.63;14.60;;;;;;;;;;5092040;28;20442;-72
2023/01/22 12:04:53;;;;;;;24.97;14.57;;;;;;;;;;5091855;28;20434;-71
2023/01/22 12:07:34;;;;;;;27.90;15.70;;;;;;;;;;5092146;28;20907;-72
2023/01/22 12:10:06;;;;;;;28.57;15.97;;;;;;;;;;5091699;28;20853;-71
2023/01/22 12:12:41;;;;;;;29.83;16.10;;;;;;;;;;5091454;28;20446;-72
2023/01/22 12:15:18;;;;;;;28.13;18.07;;;;;;;;;;5091936;28;20441;-71
2023/01/22 12:17:53;;;;;;;27.27;15.57;;;;;;;;;;5092920;28;20923;-71
2023/01/22 12:20:27;;;;;;;23.60;13.60;;;;;;;;;;5091960;28;20479;-72
2023/01/22 12:22:56;;;;;;;21.00;13.33;;;;;;;;;;5093070;28;20435;-71
2023/01/22 12:25:26;;;;;;;28.90;16.57;;;;;;;;;;5093025;28;20447;-72
2023/01/22 12:27:59;;;;;;;27.77;15.33;;;;;;;;;;5093827;28;20462;-71
2023/01/22 12:30:29;;;;;;;31.90;17.13;;;;;;;;;;5096408;28;20828;-71
2023/01/22 12:32:58;;;;;;;27.30;16.23;;;;;;;;;;5096897;28;20970;-71
2023/01/22 12:35:26;;;;;;;28.27;15.97;;;;;;;;;;5096863;28;20827;-71
2023/01/22 12:37:57;;;;;;;29.60;18.83;;;;;;;;;;5096524;28;20461;-71
2023/01/22 12:40:38;;;;;;;27.77;15.90;;;;;;;;;;5096896;28;20449;-71
2023/01/22 12:43:07;;;;;;;25.73;15.63;;;;;;;;;;5096817;28;20430;-71
2023/01/22 12:45:39;;;;;;;30.03;15.27;;;;;;;;;;5096757;28;20462;-72
2023/01/22 12:48:13;;;;;;;25.60;14.57;;;;;;;;;;5096659;28;20438;-71
2023/01/22 12:50:48;;;;;;;32.63;16.17;;;;;;;;;;5096755;28;20430;-71
2023/01/22 12:53:22;;;;;;;33.90;18.90;;;;;;;;;;5096695;28;20437;-71
2023/01/22 12:55:58;;;;;;;28.30;16.93;;;;;;;;;;5096647;28;20442;-71
2023/01/22 12:58:27;;;;;;;29.03;15.00;;;;;;;;;;5096441;28;20474;-71
2023/01/22 13:01:00;;;;;;;30.63;14.83;;;;;;;;;;5096432;28;20864;-71
2023/01/22 13:03:28;;;;;;;21.37;13.07;;;;;;;;;;5096503;28;20435;-71
2023/01/22 13:05:56;;;;;;;31.13;15.77;;;;;;;;;;5096137;28;20496;-70
2023/01/22 13:08:25;;;;;;;20.07;12.80;;;;;;;;;;5096246;28;20840;-71
2023/01/22 13:10:53;;;;;;;24.90;13.70;;;;;;;;;;5095969;28;20461;-71
2023/01/22 13:13:22;;;;;;;19.30;12.23;;;;;;;;;;5096220;28;20446;-71
2023/01/22 13:15:54;;;;;;;19.27;12.90;;;;;;;;;;5095968;28;21078;-71
2023/01/22 13:18:22;;;;;;;24.73;11.07;;;;;;;;;;5095890;28;20470;-71
2023/01/22 13:20:52;;;;;;;50.83;22.57;;;;;;;;;;5096065;28;20447;-71
2023/01/22 13:23:20;;;;;;;71.10;36.07;;;;;;;;;;5095874;28;20443;-71
2023/01/22 13:25:52;;;;;;;112.67;46.33;;;;;;;;;;5096066;28;20455;-71
2023/01/22 13:28:20;;;;;;;318.13;148.33;;;;;;;;;;5095912;28;20847;-71
2023/01/22 13:30:57;;;;;;;45.73;24.07;;;;;;;;;;5095801;28;20459;-71
2023/01/22 13:33:24;;;;;;;115.63;44.40;;;;;;;;;;5095761;28;20862;-71
2023/01/22 13:35:51;;;;;;;49.87;18.17;;;;;;;;;;5095819;28;20454;-71
2023/01/22 13:38:19;;;;;;;30.53;15.30;;;;;;;;;;5095553;28;20458;-71
2023/01/22 13:40:49;;;;;;;32.23;15.13;;;;;;;;;;5094749;28;20439;-71
2023/01/22 13:43:17;;;;;;;29.87;15.60;;;;;;;;;;5095673;28;21001;-71
2023/01/22 13:45:44;;;;;;;27.03;15.70;;;;;;;;;;5095586;28;20863;-71
2023/01/22 13:48:15;;;;;;;24.47;12.47;;;;;;;;;;5095602;28;20468;-71
2023/01/22 13:50:46;;;;;;;24.27;15.10;;;;;;;;;;5095779;28;20467;-70
2023/01/22 13:53:19;;;;;;;76.83;39.30;;;;;;;;;;5095537;28;20475;-71
2023/01/22 13:55:46;;;;;;;77.20;41.87;;;;;;;;;;5095448;28;20438;-71
2023/01/22 13:58:30;;;;;;;24.90;14.43;;;;;;;;;;5095285;28;20454;-71
2023/01/22 14:00:57;;;;;;;34.27;17.97;;;;;;;;;;5095420;28;20454;-71
2023/01/22 14:03:26;;;;;;;28.83;15.07;;;;;;;;;;5095306;28;20451;-71
2023/01/22 14:06:02;;;;;;;24.00;13.70;;;;;;;;;;5095527;28;20816;-71
2023/01/22 14:08:29;;;;;;;21.07;11.63;;;;;;;;;;5095076;28;20466;-71
2023/01/22 14:10:57;;;;;;;18.83;11.30;;;;;;;;;;5095105;28;20487;-71
2023/01/22 14:13:24;;;;;;;25.13;14.43;;;;;;;;;;5095122;28;20461;-71
2023/01/22 14:15:55;;;;;;;32.73;18.60;;;;;;;;;;5095104;28;20454;-71
2023/01/22 14:18:22;;;;;;;34.30;19.53;;;;;;;;;;5094621;28;20479;-71
2023/01/22 14:20:50;;;;;;;28.83;16.90;;;;;;;;;;5094630;28;20489;-71
2023/01/22 14:23:17;;;;;;;32.77;18.60;;;;;;;;;;5094604;28;20450;-71
2023/01/22 14:25:46;;;;;;;34.27;18.10;;;;;;;;;;5094790;28;20458;-71
2023/01/22 14:28:13;;;;;;;31.20;18.27;;;;;;;;;;5094719;28;20463;-71
2023/01/22 14:30:40;;;;;;;35.37;19.10;;;;;;;;;;5094714;28;20470;-71
2023/01/22 14:33:08;;;;;;;31.20;17.33;;;;;;;;;;5094551;28;20455;-72